Date,TemperatureHighF,TemperatureAvgF,TemperatureLowF,DewpointHighF,DewpointAvgF,DewpointLowF,HumidityHigh,HumidityAvg,HumidityLow,PressureMaxIn,PressureMinIn,WindSpeedMaxMPH,WindSpeedAvgMPH,GustSpeedMaxMPH,PrecipitationSumIn
2013-1-1,34.9,27.8,8.8,26.0,16.7,1.1,78,63,47,29.44,29.22,13,2,13,0.04
2013-1-2,27.7,14.7,1.8,16.0,6.1,-4.0,83,69,57,29.61,29.41,10,2,10,0.00
2013-1-3,23.6,12.1,2.0,12.2,-0.3,-7.8,73,58,36,29.64,29.48,7,2,9,0.00
2013-1-4,37.4,28.1,20.2,24.9,19.8,12.2,81,71,59,29.48,29.32,10,2,10,0.01
2013-1-5,40.0,30.1,16.6,25.6,19.5,10.3,81,65,45,29.76,29.36,11,2,11,0.04
2013-1-6,40.9,30.1,18.9,29.8,23.7,13.4,88,77,62,29.72,29.45,8,1,8,0.01
2013-1-7,37.8,29.1,13.1,28.6,20.2,8.0,82,70,45,29.91,29.48,8,2,8,0.00
2013-1-8,43.9,32.1,13.0,29.2,23.4,7.9,85,71,53,29.87,29.77,12,2,12,0.00
2013-1-9,43.2,33.4,19.1,34.0,26.1,14.9,87,75,56,29.90,29.51,10,2,10,0.00
2013-1-10,43.9,38.1,27.7,30.0,24.3,19.5,73,58,46,30.05,29.56,18,3,18,0.01
2013-1-11,38.2,30.5,22.0,30.1,24.5,16.7,91,79,67,30.05,29.73,5,0,5,0.10
2013-1-12,43.7,36.3,32.4,40.6,34.1,29.7,95,92,87,29.73,29.64,2,0,2,0.02
2013-1-13,47.9,42.1,35.8,46.4,40.8,34.7,97,95,93,29.67,29.50,8,1,8,0.00
2013-1-14,58.0,46.1,36.9,51.6,40.2,27.0,98,81,49,29.78,29.38,11,2,11,0.01
2013-1-15,40.5,34.2,28.1,27.4,24.8,21.8,82,69,55,29.83,29.73,7,1,7,0.00
2013-1-16,32.4,30.4,27.7,30.9,27.7,24.3,94,90,78,29.75,29.32,4,0,4,0.00
2013-1-17,41.6,31.8,24.8,33.8,24.8,11.8,94,76,55,29.60,29.32,11,1,11,0.29
2013-1-18,25.9,18.4,9.7,13.2,2.7,-1.5,73,51,35,29.93,29.55,11,2,11,0.00
2013-1-19,43.6,32.8,17.1,28.1,21.0,7.3,76,62,50,29.86,29.38,22,4,22,0.01
2013-1-20,50.8,37.1,25.2,31.3,24.1,9.8,77,60,40,29.44,29.06,18,4,18,0.00
2013-1-21,27.7,21.8,15.1,15.6,9.9,4.2,83,61,46,29.59,29.30,12,1,12,0.00
2013-1-22,22.1,16.2,5.4,16.6,5.0,-4.8,88,63,39,29.56,29.26,12,2,12,0.02
2013-1-23,13.3,7.0,1.8,-3.3,-7.9,-11.0,69,51,36,29.61,29.54,15,2,15,0.00
2013-1-24,18.2,7.6,-2.0,-5.1,-9.0,-13.0,60,47,33,29.71,29.55,16,3,16,0.00
2013-1-25,22.3,13.4,4.7,7.2,-5.2,-10.6,69,44,30,29.78,29.54,12,2,12,0.00
2013-1-26,22.5,14.5,8.3,8.6,1.4,-6.7,80,58,36,29.73,29.48,11,3,11,0.00
2013-1-27,29.2,17.0,6.5,4.6,1.1,-1.6,72,51,31,29.95,29.72,13,2,13,0.00
2013-1-28,29.9,22.6,14.0,21.2,12.2,0.7,90,66,47,29.93,29.50,5,0,5,0.00
2013-1-29,34.9,28.6,22.7,29.6,25.2,19.4,92,87,78,29.68,29.51,3,0,3,0.08
2013-1-30,56.2,44.0,31.7,54.7,42.5,29.4,98,94,91,29.64,28.94,12,2,12,0.22
2013-1-31,58.0,44.2,27.0,56.8,36.0,14.9,97,74,46,29.10,28.47,17,5,17,0.68
2013-2-1,32.0,25.5,18.4,16.7,9.2,3.7,64,50,38,29.58,29.10,18,3,18,0.00
2013-2-2,30.2,21.7,11.9,13.0,6.9,1.6,66,53,40,29.73,29.54,10,2,10,0.00
2013-2-3,27.4,22.4,13.9,19.4,16.2,8.7,85,77,67,29.55,29.23,6,1,6,0.00
2013-2-4,29.2,21.5,14.0,16.4,9.7,3.9,86,62,42,29.43,29.23,13,3,13,0.00
2013-2-5,31.7,23.3,13.9,17.7,12.4,4.6,79,63,46,29.50,29.42,6,1,6,0.00
2013-2-6,38.2,27.0,19.1,24.5,16.3,4.3,89,66,45,29.79,29.41,9,2,9,0.01
2013-2-7,30.6,21.5,9.4,7.1,3.9,1.5,73,48,32,30.00,29.78,10,1,10,0.00
2013-2-8,23.0,20.4,15.7,19.1,14.4,2.9,92,79,44,29.97,29.19,17,4,17,0.00
2013-2-9,23.2,17.7,13.1,17.6,12.0,1.2,93,79,58,29.72,29.16,17,6,17,0.00
2013-2-10,41.8,21.4,9.0,12.5,2.9,-1.9,68,46,27,29.90,29.71,11,2,11,0.09
2013-2-11,39.8,26.7,9.7,37.9,22.0,1.2,95,82,68,29.84,29.12,9,0,9,0.18
2013-2-12,40.0,35.8,32.9,36.0,29.1,27.1,87,77,63,29.20,29.13,9,3,9,0.02
2013-2-13,45.5,33.9,26.1,28.4,23.1,19.2,77,65,46,29.37,29.21,6,1,8,0.00
2013-2-14,48.6,33.4,23.9,25.4,20.7,16.6,78,61,39,29.49,29.22,5,1,7,0.00
2013-2-15,52.9,36.3,22.7,33.9,26.6,17.5,88,70,45,29.48,29.40,8,2,14,0.00
2013-2-16,40.3,33.8,26.6,29.4,22.6,16.4,70,63,57,29.39,29.26,9,2,9,0.07
2013-2-17,26.5,19.9,14.2,17.3,7.1,-0.4,87,58,46,29.26,28.95,19,6,19,0.01
2013-2-18,33.3,20.3,10.8,3.9,0.7,-1.7,59,44,26,29.65,29.21,19,4,19,0.00
2013-2-19,46.1,32.5,18.2,35.5,20.8,2.3,92,63,44,29.66,29.10,12,1,12,0.22
2013-2-20,37.4,29.7,23.6,35.0,18.6,10.6,92,64,44,29.28,29.06,14,4,14,0.01
2013-2-21,32.6,25.5,20.9,16.4,12.9,9.1,72,59,44,29.71,29.25,17,4,17,0.00
2013-2-22,41.9,30.2,19.6,22.7,19.0,13.5,81,64,43,29.88,29.71,13,2,13,0.00
2013-2-23,37.1,31.9,25.9,30.2,26.3,18.5,94,80,72,29.84,29.43,8,1,8,0.00
2013-2-24,34.6,32.4,30.8,32.7,31.0,29.4,96,94,92,29.43,29.24,8,1,8,0.23
2013-2-25,40.9,33.3,23.6,36.3,30.1,21.4,95,88,75,29.73,29.40,5,0,5,0.38
2013-2-26,45.7,36.1,31.3,35.8,30.1,26.1,93,79,63,29.83,29.66,6,1,6,0.44
2013-2-27,39.2,34.5,31.9,38.2,32.9,28.0,97,94,84,29.66,29.10,13,3,13,1.32
2013-2-28,49.0,36.9,30.6,42.6,34.0,28.0,97,89,73,29.15,29.05,8,1,8,0.04
2013-3-1,41.2,36.6,33.1,33.3,29.2,25.5,91,75,61,29.22,29.05,11,2,11,0.00
2013-3-2,40.7,35.0,30.4,29.4,26.6,24.4,79,72,62,29.21,29.15,10,2,10,0.00
2013-3-3,40.5,33.2,29.2,30.6,26.2,22.5,86,75,65,29.18,29.10,11,2,11,0.00
2013-3-4,39.6,32.0,25.7,26.6,22.8,18.5,78,69,52,29.27,29.11,14,4,14,0.00
2013-3-5,45.2,34.7,27.7,30.6,25.3,21.1,88,69,53,29.58,29.27,14,2,14,0.00
2013-3-6,37.6,33.4,30.1,34.2,31.4,28.8,96,92,82,29.62,29.55,15,4,15,0.18
2013-3-7,33.5,30.6,28.8,30.6,28.4,25.9,96,92,83,29.60,29.51,15,4,15,0.10
2013-3-8,38.7,32.9,28.4,33.3,28.1,22.0,97,84,56,29.69,29.47,12,3,12,0.01
2013-3-9,56.0,38.8,23.0,26.1,20.7,16.7,80,51,27,29.88,29.67,11,2,11,0.26
2013-3-10,50.6,34.1,18.2,34.2,25.2,14.0,90,71,50,29.92,29.81,7,1,7,0.00
2013-3-11,55.4,40.5,29.5,38.8,32.8,25.9,90,75,51,29.82,29.64,10,2,10,0.00
2013-3-12,53.6,45.4,37.3,48.3,43.1,35.1,97,92,82,29.64,29.24,10,2,10,0.43
2013-3-13,49.7,40.2,28.4,42.2,28.7,19.3,95,66,36,29.31,29.24,11,2,11,0.00
2013-3-14,34.4,28.9,20.0,24.4,14.6,6.2,70,55,43,29.35,29.23,15,4,15,0.00
2013-3-15,41.4,28.6,16.2,27.5,14.7,6.4,81,58,29,29.37,29.15,9,2,9,0.00
2013-3-16,41.2,31.8,24.1,26.0,16.8,9.2,79,56,31,29.40,29.20,13,1,13,0.00
2013-3-17,37.1,28.5,20.9,15.8,10.4,3.6,70,49,27,29.81,29.40,16,2,16,0.00
2013-3-18,40.7,27.2,13.3,23.5,6.9,-0.4,84,44,24,29.94,29.72,8,1,8,0.00
2013-3-19,33.7,30.0,26.8,31.8,28.0,22.4,95,92,82,29.72,29.17,12,2,12,0.06
2013-3-20,40.3,28.9,18.4,25.2,20.2,13.3,90,71,48,29.32,29.22,12,1,12,0.24
2013-3-21,44.3,29.6,15.3,23.9,16.9,10.5,84,61,33,29.31,29.10,6,1,6,0.16
2013-3-22,42.1,31.6,23.4,22.1,17.7,13.7,70,57,40,29.25,29.11,11,3,11,0.00
2013-3-23,43.9,33.8,24.3,23.6,19.5,17.3,79,57,37,29.30,29.16,15,4,15,0.00
2013-3-24,48.6,36.9,29.5,25.4,22.0,18.6,70,56,40,29.32,29.23,14,2,14,0.00
2013-3-25,44.8,35.7,28.4,30.8,25.9,20.4,73,68,55,29.27,29.03,14,2,14,0.00
2013-3-26,50.4,39.5,33.5,32.3,24.8,18.8,75,58,34,29.29,29.06,10,2,10,0.00
2013-3-27,54.0,41.9,33.3,29.8,23.8,19.1,68,50,32,29.38,29.26,13,3,13,0.00
2013-3-28,51.7,41.9,34.9,33.1,30.9,28.2,86,66,46,29.53,29.38,10,2,10,0.00
2013-3-29,57.2,45.2,38.2,35.6,31.4,28.3,77,60,36,29.57,29.48,10,2,10,0.00
2013-3-30,57.1,44.2,31.0,32.1,24.1,15.7,74,49,23,29.61,29.53,12,3,12,0.00
2013-3-31,60.7,43.2,25.2,37.0,26.4,18.6,82,56,25,29.63,29.25,14,2,14,0.07
2013-4-1,62.5,44.1,31.5,45.5,34.1,11.8,95,70,39,29.31,29.03,13,3,13,0.29
2013-4-2,38.5,32.0,24.1,19.0,13.5,9.2,62,47,33,29.44,29.31,16,4,16,0.00
2013-4-3,45.0,34.5,26.1,17.7,13.8,9.5,62,44,27,29.65,29.42,14,4,14,0.00
2013-4-4,57.6,40.7,26.8,23.0,17.3,11.9,62,42,22,29.79,29.53,10,2,10,0.00
2013-4-5,61.6,45.5,34.6,28.9,24.7,16.7,73,48,21,29.53,29.17,11,3,12,0.00
2013-4-6,47.2,35.4,26.1,24.5,11.7,1.3,62,40,17,29.82,29.40,13,3,13,0.00
2013-4-7,59.4,40.7,23.6,37.6,24.3,11.2,81,54,29,29.81,29.48,17,4,17,0.00
2013-4-8,67.3,51.6,41.9,40.2,37.1,32.3,89,62,30,29.60,29.45,10,2,10,0.00
2013-4-9,69.1,55.4,43.9,51.7,42.4,36.5,88,64,42,29.58,29.38,13,2,13,0.02
2013-4-10,67.0,53.5,45.0,52.5,46.0,40.4,92,77,55,29.54,29.37,6,1,6,0.29
2013-4-11,55.8,47.0,38.5,46.8,36.1,23.6,95,68,39,29.66,29.35,10,2,10,0.06
2013-4-12,38.9,35.2,33.3,33.7,32.4,30.0,96,90,71,29.66,29.32,10,2,10,0.54
2013-4-13,54.7,42.6,33.3,40.6,35.0,31.8,96,77,51,29.47,29.29,9,2,9,0.11
2013-4-14,53.3,43.4,35.6,38.2,31.0,25.1,88,63,40,29.74,29.43,14,2,14,0.01
2013-4-15,62.3,46.3,28.6,37.2,31.4,22.9,83,58,37,29.90,29.73,8,1,8,0.00
2013-4-16,69.8,50.6,31.0,51.0,40.6,25.7,89,70,42,29.90,29.58,19,4,19,0.02
2013-4-17,68.6,56.3,40.0,51.5,36.9,26.6,89,52,26,29.87,29.58,12,2,12,0.00
2013-4-18,66.6,50.4,31.9,43.7,32.5,25.4,80,53,30,29.94,29.65,14,3,14,0.00
2013-4-19,77.2,62.8,50.9,62.1,56.0,42.9,94,79,56,29.66,29.17,19,5,19,0.00
2013-4-20,65.7,51.5,39.2,61.8,38.6,21.1,93,64,36,29.75,29.15,14,4,16,0.39
2013-4-21,56.5,41.5,28.8,24.5,20.3,15.4,66,45,22,30.18,29.75,12,2,12,0.00
2013-4-22,56.3,41.7,27.0,33.0,26.9,20.1,82,59,29,30.25,30.10,13,2,13,0.00
2013-4-23,39.2,37.4,35.3,37.9,34.4,28.3,96,90,74,30.10,29.64,13,3,13,0.01
2013-4-24,78.8,57.1,38.9,52.8,43.8,37.5,96,67,26,29.64,29.31,13,3,13,0.01
2013-4-25,65.9,54.1,44.6,50.1,34.6,22.1,89,52,23,29.80,29.34,12,3,12,0.07
2013-4-26,67.3,50.1,32.4,37.3,31.2,22.9,73,50,31,29.94,29.80,10,1,10,0.00
2013-4-27,70.6,52.0,31.0,42.9,33.7,25.9,86,53,29,29.94,29.79,8,1,8,0.00
2013-4-28,77.8,57.3,34.4,44.8,36.2,27.3,86,49,25,29.85,29.71,11,2,11,0.00
2013-4-29,76.3,58.0,43.0,48.6,36.8,25.5,75,47,30,29.78,29.70,12,2,12,0.00
2013-4-30,76.7,59.0,41.2,41.4,30.4,24.2,66,37,19,29.87,29.76,9,1,9,0.00
2013-5-1,78.8,57.2,32.2,41.9,32.5,24.7,77,44,22,29.98,29.87,8,1,8,0.00
2013-5-2,85.0,62.4,44.1,48.6,40.2,33.6,74,48,21,30.00,29.84,12,2,12,0.00
2013-5-3,66.2,52.1,39.6,45.2,39.2,32.5,83,63,45,30.03,29.88,11,2,11,0.00
2013-5-4,69.7,52.9,35.8,51.8,35.6,17.4,92,57,18,29.88,29.78,9,1,9,0.00
2013-5-5,71.3,50.8,30.4,43.4,34.7,26.1,90,58,33,29.83,29.72,8,1,8,0.00
2013-5-6,78.7,57.0,31.7,49.1,39.8,28.0,91,58,26,29.76,29.61,8,1,8,0.00
2013-5-7,84.8,65.9,41.2,56.6,49.4,37.6,92,60,30,29.65,29.55,9,2,9,0.00
2013-5-8,74.5,62.1,48.6,65.1,56.1,45.2,93,81,64,29.66,29.51,10,1,10,0.56
2013-5-9,72.0,60.6,55.6,63.8,57.4,53.7,95,90,70,29.51,29.35,5,0,5,0.17
2013-5-10,83.7,67.3,48.4,64.4,55.1,46.8,97,69,38,29.40,29.35,8,1,8,0.00
2013-5-11,68.0,61.8,57.4,62.6,56.9,52.9,94,84,74,29.36,29.00,8,2,8,0.25
2013-5-12,70.4,59.9,57.1,58.6,55.9,53.4,96,88,55,29.14,29.06,4,1,4,0.02
2013-9-5,72.9,62.9,48.8,59.6,48.4,41.7,83,60,42,30.16,29.96,0,0,0,0.00
2013-9-6,74.0,57.2,44.5,47.8,42.2,37.5,83,60,34,30.25,30.09,0,0,0,0.00
2013-9-7,83.0,63.5,45.0,58.8,51.3,41.3,91,68,37,30.09,29.86,0,0,0,0.00
2013-9-8,76.9,63.3,49.1,64.2,51.4,38.4,89,67,43,30.11,29.77,0,0,0,0.00
2013-9-9,75.1,57.8,40.5,49.9,44.2,35.4,85,63,37,30.23,30.10,0,0,0,0.00
2013-9-10,79.4,66.9,52.7,71.1,62.0,47.3,91,85,75,30.14,30.03,0,0,0,0.00
2013-9-11,98.3,80.4,66.6,80.6,71.9,64.4,96,77,51,30.08,29.96,0,0,0,0.00
2013-9-12,92.5,77.5,66.2,77.6,69.5,63.5,92,77,60,29.98,29.68,0,0,0,0.00
2013-9-13,82.3,68.0,56.5,70.6,62.1,51.7,96,82,59,29.79,29.60,0,0,0,0.00
2013-9-14,68.9,58.8,52.2,55.4,51.1,47.1,89,76,56,30.06,29.78,0,0,0,0.00
2013-9-15,75.1,58.7,45.4,54.6,48.8,42.9,92,72,42,30.17,30.05,0,0,0,0.00
2013-9-16,68.4,57.3,43.6,56.2,49.0,35.6,87,74,58,30.26,30.01,0,0,0,0.00
2013-9-17,63.4,49.6,39.4,42.0,37.8,32.9,85,66,43,30.42,30.25,0,0,0,0.00
2013-9-18,77.6,56.6,40.5,53.2,44.6,37.1,92,68,35,30.32,30.13,0,0,0,0.00
2013-9-19,84.1,64.1,47.0,57.3,50.4,41.8,86,63,38,30.13,30.04,0,0,0,0.00
2013-9-20,83.5,63.7,47.5,62.1,52.6,44.2,92,70,39,30.09,30.00,0,0,0,0.00
2013-9-21,77.8,64.1,49.3,64.2,57.6,46.8,95,81,60,30.03,29.72,0,0,0,0.00
2013-9-22,72.0,62.0,49.9,65.0,54.4,43.2,94,77,52,29.86,29.61,0,0,0,0.02
2013-9-23,64.1,51.5,43.6,45.8,41.1,37.6,82,69,48,30.02,29.85,0,0,0,0.00
2013-9-24,65.9,52.0,38.2,45.8,40.3,34.3,89,67,43,30.01,29.83,0,0,0,0.00
2013-9-25,71.3,58.4,46.1,53.0,47.1,39.8,80,67,50,29.99,29.88,0,0,0,0.00
2013-9-26,70.0,57.3,50.8,51.4,47.7,44.6,86,71,50,30.13,29.99,0,0,0,2.35
2013-9-27,67.5,54.2,47.7,53.9,48.2,44.6,90,81,60,30.27,30.13,0,0,0,0.00
2013-9-28,72.0,47.4,45.0,55.1,44.7,43.0,95,90,54,30.32,30.26,0,0,0,0.00
2013-9-30,73.3,59.6,45.9,57.5,48.6,42.6,89,69,47,30.05,29.97,0,0,0,0.00
2013-10-1,65.7,56.7,46.1,57.2,50.9,43.1,92,81,69,29.97,29.89,0,0,0,0.06
2013-10-3,76.3,64.1,55.4,55.9,50.6,48.0,76,63,44,30.08,30.03,0,0,0,0.00
2013-10-4,65.3,58.4,49.5,58.5,51.4,44.0,91,78,59,30.10,30.04,0,0,0,0.07
2013-10-5,57.2,56.8,56.3,54.6,54.3,53.7,92,91,91,30.07,30.06,0,0,0,0.04
2013-10-6,59.6,52.2,51.1,56.7,50.7,49.6,97,95,90,30.22,30.13,0,0,0,0.37
2013-10-7,74.5,66.6,53.3,70.9,63.3,52.1,97,89,79,30.14,29.79,0,0,0,0.15
2013-10-8,55.8,47.6,41.6,52.6,41.1,36.3,89,78,62,30.38,29.90,0,0,0,0.00
2013-10-9,41.4,39.3,38.0,36.3,35.2,34.4,88,85,82,30.39,30.37,0,0,0,0.00
2013-10-10,51.7,49.2,45.5,47.3,45.5,42.4,89,87,84,30.22,30.18,0,0,0,0.00
2013-10-11,70.9,58.3,45.4,55.8,43.8,38.0,90,61,37,30.18,30.10,0,0,0,0.00
2013-10-12,46.1,45.4,45.0,42.6,41.9,41.3,90,87,85,30.17,30.15,0,0,0,0.00